createdAt,value
2019-04-27T00:02:01.376Z,34.03
2019-04-27T00:04:35.314Z,32.00
2019-04-27T00:07:24.138Z,31.13
2019-04-27T00:09:55.427Z,32.30
2019-04-27T00:12:27.377Z,27.50
2019-04-27T00:14:56.975Z,25.27
2019-04-27T00:17:49.449Z,34.00
2019-04-27T00:20:21.619Z,25.40
2019-04-27T00:23:01.060Z,23.80
2019-04-27T00:25:30.739Z,33.03
2019-04-27T00:28:00.321Z,36.60
2019-04-27T00:30:29.955Z,34.83
2019-04-27T00:32:59.458Z,29.63
2019-04-27T00:35:30.978Z,32.70
2019-04-27T00:38:07.927Z,33.97
2019-04-27T00:40:41.556Z,29.97
2019-04-27T00:43:11.059Z,34.87
2019-04-27T00:45:40.734Z,35.07
2019-04-27T00:48:10.437Z,35.20
2019-04-27T00:50:40.079Z,27.07
2019-04-27T00:53:09.658Z,32.50
2019-04-27T00:55:40.941Z,33.77
2019-04-27T00:58:14.901Z,27.73
2019-04-27T01:00:55.284Z,41.63
2019-04-27T01:03:35.694Z,32.17
2019-04-27T01:06:05.875Z,33.13
2019-04-27T01:08:35.439Z,34.83
2019-04-27T01:11:05.148Z,36.77
2019-04-27T01:13:35.083Z,38.50
2019-04-27T01:16:04.736Z,31.47
2019-04-27T01:18:34.272Z,32.57
2019-04-27T01:21:03.840Z,27.10
2019-04-27T01:23:33.416Z,42.43
2019-04-27T01:26:13.494Z,31.97
2019-04-27T01:28:50.777Z,29.63
2019-04-27T01:31:21.700Z,32.57
2019-04-27T01:33:51.210Z,34.53
2019-04-27T01:36:20.721Z,35.80
2019-04-27T01:38:50.305Z,34.40
2019-04-27T01:41:19.877Z,36.80
2019-04-27T01:43:49.481Z,29.40
2019-04-27T01:46:19.611Z,29.70
2019-04-27T01:48:49.484Z,30.53
2019-04-27T01:51:21.100Z,31.37
2019-04-27T01:53:50.303Z,33.07
2019-04-27T01:56:20.136Z,36.93
2019-04-27T01:58:50.457Z,23.83
2019-04-27T02:01:31.004Z,37.13
2019-04-27T02:04:14.414Z,35.53
2019-04-27T02:06:45.636Z,32.87
2019-04-27T02:09:18.769Z,36.10
2019-04-27T02:11:49.021Z,29.13
2019-04-27T02:14:19.576Z,27.33
2019-04-27T02:16:49.420Z,27.13
2019-04-27T02:19:19.487Z,28.20
2019-04-27T02:21:51.461Z,28.30
2019-04-27T02:24:20.386Z,30.93
2019-04-27T02:26:49.884Z,25.43
2019-04-27T02:29:24.137Z,27.60
2019-04-27T02:32:11.212Z,29.00
2019-04-27T02:34:43.453Z,34.73
2019-04-27T02:37:13.040Z,30.60
2019-04-27T02:39:42.676Z,29.77
2019-04-27T02:42:12.340Z,35.37
2019-04-27T02:44:42.180Z,42.97
2019-04-27T02:47:11.768Z,34.13
2019-04-27T02:49:41.290Z,37.43
2019-04-27T02:52:16.401Z,30.33
2019-04-27T02:54:45.975Z,37.67
2019-04-27T02:57:15.556Z,28.33
2019-04-27T02:59:45.137Z,32.93
2019-04-27T03:02:32.370Z,27.27
2019-04-27T03:05:01.861Z,32.93
2019-04-27T03:07:31.466Z,33.57
2019-04-27T03:10:02.250Z,34.73
2019-04-27T03:12:34.178Z,35.50
2019-04-27T03:15:14.129Z,31.33
2019-04-27T03:18:01.383Z,33.63
2019-04-27T03:20:50.175Z,34.23
2019-04-27T03:23:19.931Z,39.93
2019-04-27T03:25:51.315Z,30.40
2019-04-27T03:28:20.890Z,27.97
2019-04-27T03:30:52.137Z,28.30
2019-04-27T03:33:22.824Z,36.77
2019-04-27T03:35:53.250Z,29.60
2019-04-27T03:38:23.129Z,36.37
2019-04-27T03:40:53.143Z,35.20
2019-04-27T03:43:24.468Z,35.67
2019-04-27T03:45:54.128Z,28.77
2019-04-27T03:48:23.712Z,28.30
2019-04-27T03:50:59.501Z,33.97
2019-04-27T03:53:45.948Z,37.63
2019-04-27T03:56:22.905Z,38.33
2019-04-27T03:59:06.117Z,34.57
2019-04-27T04:01:35.673Z,40.13
2019-04-27T04:04:05.843Z,31.23
2019-04-27T04:06:35.456Z,25.70
2019-04-27T04:09:10.197Z,27.33
2019-04-27T04:11:49.711Z,30.63
2019-04-27T04:14:23.702Z,26.03
2019-04-27T04:17:02.283Z,26.90
2019-04-27T04:19:31.611Z,30.73
2019-04-27T04:22:00.614Z,26.00
2019-04-27T04:24:31.763Z,32.83
2019-04-27T04:27:01.669Z,34.03
2019-04-27T04:29:31.468Z,30.97
2019-04-27T04:32:01.304Z,32.63
2019-04-27T04:34:40.060Z,33.10
2019-04-27T04:37:09.755Z,34.30
2019-04-27T04:39:44.258Z,33.83
2019-04-27T04:42:22.674Z,34.23
2019-04-27T04:45:03.433Z,37.23
2019-04-27T04:47:34.819Z,34.30
2019-04-27T04:50:14.054Z,33.60
2019-04-27T04:52:39.591Z,29.73
2019-04-27T04:55:10.106Z,29.57
2019-04-27T04:57:40.215Z,31.83
2019-04-27T05:00:10.402Z,30.63
2019-04-27T05:02:40.169Z,31.97
2019-04-27T05:05:09.750Z,26.17
2019-04-27T05:07:39.390Z,29.17
2019-04-27T05:10:09.270Z,28.83
2019-04-27T05:12:39.901Z,29.63
2019-04-27T05:15:09.534Z,27.37
2019-04-27T05:17:39.901Z,31.27
2019-04-27T05:20:29.532Z,26.77
2019-04-27T05:22:59.490Z,30.40
2019-04-27T05:25:29.295Z,30.03
2019-04-27T05:27:59.654Z,30.73
2019-04-27T05:30:29.434Z,30.27
2019-04-27T05:32:59.102Z,27.90
2019-04-27T05:35:29.769Z,35.57
2019-04-27T05:38:06.989Z,28.93
2019-04-27T05:40:32.012Z,25.37
2019-04-27T05:43:09.692Z,40.73
2019-04-27T05:45:53.172Z,38.63
2019-04-27T05:48:30.642Z,31.53
2019-04-27T05:51:01.984Z,39.60
2019-04-27T05:53:31.900Z,39.03
2019-04-27T05:56:01.461Z,36.33
2019-04-27T05:58:31.115Z,35.27
2019-04-27T06:01:02.415Z,31.57
2019-04-27T06:03:31.927Z,36.37
2019-04-27T06:06:01.808Z,36.40
2019-04-27T06:08:31.624Z,35.83
2019-04-27T06:11:01.205Z,31.10
2019-04-27T06:13:31.080Z,32.97
2019-04-27T06:16:00.675Z,36.50
2019-04-27T06:18:31.541Z,34.73
2019-04-27T06:21:02.382Z,38.10
2019-04-27T06:23:31.982Z,34.37
2019-04-27T06:26:01.968Z,29.37
2019-04-27T06:28:31.587Z,27.93
2019-04-27T06:31:01.012Z,36.37
2019-04-27T06:33:34.218Z,31.50
2019-04-27T06:36:01.930Z,30.63
2019-04-27T06:38:31.643Z,34.23
2019-04-27T06:41:01.403Z,28.90
2019-04-27T06:43:31.200Z,31.40
2019-04-27T06:46:00.699Z,29.00
2019-04-27T06:48:30.370Z,33.27
2019-04-27T06:51:03.611Z,29.33
2019-04-27T06:53:31.168Z,33.33
2019-04-27T06:56:01.803Z,37.40
2019-04-27T06:58:31.604Z,35.93
2019-04-27T07:01:01.174Z,35.03
2019-04-27T07:03:30.827Z,40.53
2019-04-27T07:06:00.257Z,38.27
2019-04-27T07:08:30.848Z,34.33
2019-04-27T07:11:00.563Z,35.90
2019-04-27T07:13:30.151Z,37.87
2019-04-27T07:15:59.777Z,36.87
2019-04-27T07:18:29.273Z,31.57
2019-04-27T07:20:59.012Z,33.27
2019-04-27T07:23:29.291Z,35.03
2019-04-27T07:25:59.856Z,33.57
2019-04-27T07:28:29.742Z,38.03
2019-04-27T07:30:59.395Z,38.77
2019-04-27T07:33:29.667Z,40.87
2019-04-27T07:35:59.184Z,35.27
2019-04-27T07:38:29.414Z,44.87
2019-04-27T07:40:59.248Z,39.07
2019-04-27T07:43:30.321Z,32.90
2019-04-27T07:46:00.161Z,34.80
2019-04-27T07:48:29.583Z,26.80
2019-04-27T07:50:59.146Z,32.50
2019-04-27T07:53:29.190Z,31.60
2019-04-27T07:55:59.262Z,28.77
2019-04-27T07:58:29.607Z,30.40
2019-04-27T08:00:59.583Z,37.60
2019-04-27T08:03:30.836Z,40.20
2019-04-27T08:06:00.621Z,37.37
2019-04-27T08:08:30.123Z,26.37
2019-04-27T08:10:59.842Z,33.13
2019-04-27T08:13:29.509Z,31.50
2019-04-27T08:15:59.119Z,36.33
2019-04-27T08:18:29.903Z,32.13
2019-04-27T08:21:00.750Z,36.30
2019-04-27T08:23:30.320Z,36.73
2019-04-27T08:25:59.998Z,33.23
2019-04-27T08:28:31.212Z,35.77
2019-04-27T08:31:02.348Z,34.70
2019-04-27T08:33:32.027Z,35.33
2019-04-27T08:36:01.600Z,34.40
2019-04-27T08:38:31.172Z,29.60
2019-04-27T08:41:00.725Z,28.00
2019-04-27T08:43:30.227Z,36.57
2019-04-27T08:46:00.365Z,38.57
2019-04-27T08:48:34.713Z,32.30
2019-04-27T08:51:02.478Z,28.40
2019-04-27T08:53:32.072Z,35.93
2019-04-27T08:56:01.658Z,43.90
2019-04-27T08:58:31.324Z,39.10
2019-04-27T09:01:03.707Z,36.47
2019-04-27T09:03:33.202Z,35.60
2019-04-27T09:06:04.624Z,28.63
2019-04-27T09:08:41.259Z,31.30
2019-04-27T09:11:12.209Z,33.90
2019-04-27T09:13:43.345Z,26.20
2019-04-27T09:16:20.239Z,28.10
2019-04-27T09:18:51.101Z,33.00
2019-04-27T09:21:20.627Z,34.77
2019-04-27T09:23:50.073Z,26.97
2019-04-27T09:26:19.495Z,31.73
2019-04-27T09:28:49.333Z,37.33
2019-04-27T09:31:19.662Z,32.63
2019-04-27T09:33:49.354Z,27.27
2019-04-27T09:36:18.893Z,38.27
2019-04-27T09:38:48.338Z,32.43
2019-04-27T09:41:17.873Z,25.73
2019-04-27T09:43:47.305Z,28.73
2019-04-27T09:46:16.836Z,38.70
2019-04-27T09:48:46.680Z,30.07
2019-04-27T09:51:16.347Z,35.43
2019-04-27T09:53:45.962Z,28.50
2019-04-27T09:56:16.461Z,31.67
2019-04-27T09:58:47.129Z,27.50
2019-04-27T10:01:18.100Z,26.67
2019-04-27T10:03:49.054Z,34.93
2019-04-27T10:06:18.590Z,33.70
2019-04-27T10:08:48.076Z,33.77
2019-04-27T10:11:17.675Z,32.07
2019-04-27T10:13:47.386Z,25.10
2019-04-27T10:16:17.228Z,36.77
2019-04-27T10:18:46.930Z,26.47
2019-04-27T10:21:16.440Z,36.90
2019-04-27T10:23:47.036Z,26.87
2019-04-27T10:26:16.651Z,24.70
2019-04-27T10:28:46.186Z,34.43
2019-04-27T10:31:15.763Z,32.10
2019-04-27T10:33:45.841Z,28.33
2019-04-27T10:36:17.280Z,28.67
2019-04-27T10:38:46.779Z,38.13
2019-04-27T10:41:16.641Z,30.60
2019-04-27T10:43:46.280Z,44.47
2019-04-27T10:46:15.774Z,37.30
2019-04-27T10:48:45.734Z,26.37
2019-04-27T10:51:16.116Z,32.83
2019-04-27T10:53:45.765Z,29.57
2019-04-27T10:56:15.232Z,38.13
2019-04-27T10:58:45.699Z,34.50
2019-04-27T11:01:15.657Z,28.83
2019-04-27T11:04:05.942Z,38.40
2019-04-27T11:06:53.603Z,27.97
2019-04-27T11:09:23.267Z,34.77
2019-04-27T11:11:52.867Z,24.27
2019-04-27T11:14:22.549Z,27.97
2019-04-27T11:16:52.047Z,27.20
2019-04-27T11:19:21.650Z,33.67
2019-04-27T11:21:51.211Z,27.97
2019-04-27T11:24:20.716Z,34.03
2019-04-27T11:26:50.146Z,28.57
2019-04-27T11:29:19.713Z,29.63
2019-04-27T11:31:49.302Z,34.60
2019-04-27T11:34:20.338Z,27.40
2019-04-27T11:36:51.692Z,34.77
2019-04-27T11:39:21.336Z,25.53
2019-04-27T11:41:50.821Z,21.43
2019-04-27T11:44:20.259Z,23.23
2019-04-27T11:46:49.747Z,24.97
2019-04-27T11:49:19.426Z,25.53
2019-04-27T11:51:48.990Z,23.50
2019-04-27T11:54:18.554Z,22.30
2019-04-27T11:56:55.990Z,19.60
2019-04-27T11:59:27.019Z,20.87
2019-04-27T12:01:56.575Z,21.53
2019-04-27T12:04:26.364Z,18.97
2019-04-27T12:06:56.479Z,17.93
2019-04-27T12:09:26.109Z,19.03
2019-04-27T12:12:06.759Z,19.87
2019-04-27T12:14:26.918Z,14.17
2019-04-27T12:16:56.557Z,17.07
2019-04-27T12:19:27.410Z,29.83
2019-04-27T12:21:56.983Z,21.53
2019-04-27T12:24:26.824Z,29.87
2019-04-27T12:27:07.164Z,27.03
2019-04-27T12:29:55.844Z,24.13
2019-04-27T12:32:26.523Z,25.23
2019-04-27T12:34:56.539Z,19.60
2019-04-27T12:37:26.873Z,22.00
2019-04-27T12:39:57.645Z,28.93
2019-04-27T12:42:27.194Z,26.43
2019-04-27T12:44:56.858Z,30.53
2019-04-27T12:47:26.415Z,26.57
2019-04-27T12:49:57.682Z,25.43
2019-04-27T12:52:27.394Z,29.80
2019-04-27T12:55:16.774Z,26.57
2019-04-27T12:57:53.736Z,29.53
2019-04-27T13:00:33.917Z,24.93
2019-04-27T13:03:03.505Z,29.53
2019-04-27T13:05:33.129Z,23.13
2019-04-27T13:08:02.701Z,23.93
2019-04-27T13:10:32.301Z,25.90
2019-04-27T13:13:01.905Z,27.53
2019-04-27T13:15:31.512Z,26.77
2019-04-27T13:18:01.145Z,34.17
2019-04-27T13:20:31.276Z,29.27
2019-04-27T13:23:01.817Z,29.37
2019-04-27T13:25:31.639Z,24.33
2019-04-27T13:28:01.850Z,24.60
2019-04-27T13:30:31.573Z,29.10
2019-04-27T13:33:01.074Z,25.77
2019-04-27T13:35:30.676Z,26.17
2019-04-27T13:38:00.330Z,27.97
2019-04-27T13:40:31.646Z,30.87
2019-04-27T13:43:02.925Z,34.07
2019-04-27T13:45:49.687Z,31.73
2019-04-27T13:48:39.259Z,35.47
2019-04-27T13:51:10.416Z,28.13
2019-04-27T13:53:41.447Z,23.90
2019-04-27T13:56:17.581Z,25.90
2019-04-27T13:58:47.508Z,30.07
2019-04-27T14:01:17.011Z,24.13
2019-04-27T14:03:46.539Z,24.37
2019-04-27T14:06:19.924Z,27.33
2019-04-27T14:08:49.538Z,25.53
2019-04-27T14:11:19.119Z,29.13
2019-04-27T14:13:48.685Z,24.83
2019-04-27T14:16:18.930Z,22.43
2019-04-27T14:18:48.661Z,31.83
2019-04-27T14:21:18.290Z,26.47
2019-04-27T14:23:48.483Z,30.43
2019-04-27T14:26:18.491Z,30.90
2019-04-27T14:28:49.888Z,32.53
2019-04-27T14:31:20.874Z,22.37
2019-04-27T14:33:52.064Z,26.77
2019-04-27T14:36:21.765Z,31.20
2019-04-27T14:38:51.528Z,18.80
2019-04-27T14:41:21.241Z,32.73
2019-04-27T14:44:07.530Z,31.77
2019-04-27T14:46:28.317Z,27.13
2019-04-27T14:48:59.716Z,16.90
2019-04-27T14:51:29.284Z,20.87
2019-04-27T14:54:02.065Z,13.97
2019-04-27T14:56:31.558Z,18.07
2019-04-27T14:59:01.120Z,12.43
2019-04-27T15:01:30.821Z,21.10
2019-04-27T15:04:00.388Z,15.70
2019-04-27T15:06:30.254Z,11.47
2019-04-27T15:09:03.057Z,12.87
2019-04-27T15:11:34.683Z,22.30
2019-04-27T15:14:06.106Z,12.00
2019-04-27T15:16:42.654Z,15.23
2019-04-27T15:19:21.043Z,15.53
2019-04-27T15:21:58.537Z,11.53
2019-04-27T15:24:27.652Z,14.33
2019-04-27T15:27:02.059Z,13.30
2019-04-27T15:29:31.854Z,18.57
2019-04-27T15:32:04.345Z,16.93
2019-04-27T15:34:42.720Z,16.60
2019-04-27T15:37:20.568Z,19.47
2019-04-27T15:40:09.998Z,13.87
2019-04-27T15:42:41.541Z,18.57
2019-04-27T15:45:15.977Z,17.73
2019-04-27T15:47:47.712Z,10.57
2019-04-27T15:50:15.893Z,18.90
2019-04-27T15:52:45.356Z,14.20
2019-04-27T15:55:32.346Z,21.37
2019-04-27T15:57:52.953Z,19.03
2019-04-27T16:00:28.589Z,19.53
2019-04-27T16:02:57.751Z,19.27
2019-04-27T16:05:28.591Z,24.77
2019-04-27T16:08:15.266Z,24.43
2019-04-27T16:10:40.383Z,28.30
2019-04-27T16:13:14.942Z,19.70
2019-04-27T16:18:38.989Z,13.77
2019-04-27T16:21:10.762Z,13.83
2019-04-27T16:23:43.057Z,13.73
2019-04-27T16:26:14.858Z,16.10
2019-04-27T16:28:43.089Z,11.93
2019-04-27T16:31:13.835Z,11.90
2019-04-27T16:33:43.425Z,23.40
2019-04-27T16:36:12.994Z,18.40
2019-04-27T16:38:44.296Z,16.93
2019-04-27T16:41:13.997Z,12.33
2019-04-27T16:43:45.646Z,13.63
2019-04-27T16:46:14.880Z,16.00
2019-04-27T16:48:44.518Z,14.33
2019-04-27T16:51:14.112Z,14.37
2019-04-27T16:53:43.796Z,11.10
2019-04-27T16:56:16.135Z,15.00
2019-04-27T16:58:48.937Z,14.13
2019-04-27T17:01:18.743Z,10.63
2019-04-27T17:03:48.631Z,13.23
2019-04-27T17:06:19.106Z,10.43
2019-04-27T17:08:49.827Z,13.83
2019-04-27T17:11:19.855Z,12.13
2019-04-27T17:13:58.995Z,12.37
2019-04-27T17:16:39.525Z,12.23
2019-04-27T17:19:20.015Z,11.17
2019-04-27T17:21:49.642Z,12.80
2019-04-27T17:24:43.924Z,9.80
2019-04-27T17:27:11.592Z,16.53
2019-04-27T17:29:42.272Z,13.50
2019-04-27T17:32:13.575Z,15.70
2019-04-27T17:34:43.175Z,10.77
2019-04-27T17:37:12.606Z,16.60
2019-04-27T17:39:42.241Z,13.10
2019-04-27T17:42:11.756Z,21.33
2019-04-27T17:44:42.795Z,13.47
2019-04-27T17:47:12.498Z,16.33
2019-04-27T17:49:42.162Z,13.70
2019-04-27T17:52:13.161Z,11.43
2019-04-27T17:54:47.374Z,14.73
2019-04-27T17:57:15.589Z,13.37
2019-04-27T17:59:45.342Z,14.20
2019-04-27T18:02:15.078Z,17.37
2019-04-27T18:04:44.646Z,14.20
2019-04-27T18:07:14.209Z,16.30
2019-04-27T18:09:44.850Z,18.17
2019-04-27T18:12:18.357Z,19.37
2019-04-27T18:14:47.825Z,18.47
2019-04-27T18:17:19.689Z,20.40
2019-04-27T18:19:50.292Z,21.87
2019-04-27T18:22:20.189Z,16.23
2019-04-27T18:24:51.500Z,25.20
2019-04-27T18:27:22.858Z,18.10
2019-04-27T18:29:54.250Z,18.90
2019-04-27T18:32:27.657Z,18.60
2019-04-27T18:34:55.417Z,22.10
2019-04-27T18:37:25.150Z,20.60
2019-04-27T18:39:55.112Z,24.50
2019-04-27T18:42:28.074Z,17.93
2019-04-27T18:44:55.852Z,19.20
2019-04-27T18:47:25.587Z,22.23
2019-04-27T18:50:07.509Z,27.57
2019-04-27T18:52:40.773Z,22.60
2019-04-27T18:55:11.440Z,24.40
2019-04-27T18:57:46.067Z,22.23
2019-04-27T19:00:16.507Z,25.13
2019-04-27T19:02:50.031Z,25.03
2019-04-27T19:05:18.824Z,17.27
2019-04-27T19:07:48.871Z,21.13
2019-04-27T19:10:22.281Z,22.90
2019-04-27T19:12:51.040Z,18.90
2019-04-27T19:15:20.825Z,19.70
2019-04-27T19:17:50.307Z,13.73
2019-04-27T19:20:20.025Z,19.20
2019-04-27T19:22:49.697Z,20.43
2019-04-27T19:25:20.973Z,18.57
2019-04-27T19:27:58.292Z,24.53
2019-04-27T19:30:42.116Z,24.93
2019-04-27T19:33:11.821Z,24.40
2019-04-27T19:35:42.938Z,23.17
2019-04-27T19:38:12.504Z,23.53
2019-04-27T19:40:41.967Z,20.17
2019-04-27T19:43:11.530Z,26.83
2019-04-27T19:45:41.102Z,28.60
2019-04-27T19:48:10.690Z,29.17
2019-04-27T19:50:40.083Z,26.17
2019-04-27T19:53:10.892Z,19.30
2019-04-27T19:55:40.690Z,17.23
2019-04-27T19:58:10.383Z,16.83
2019-04-27T20:00:44.720Z,14.60
2019-04-27T20:03:15.983Z,15.90
2019-04-27T20:05:45.508Z,14.13
2019-04-27T20:08:16.633Z,13.70
2019-04-27T20:10:46.193Z,11.83
2019-04-27T20:13:15.766Z,15.07
2019-04-27T20:15:45.404Z,18.23
2019-04-27T20:18:15.289Z,14.70
2019-04-27T20:20:45.087Z,15.03
2019-04-27T20:23:14.721Z,15.83
2019-04-27T20:25:44.392Z,14.83
2019-04-27T20:28:13.882Z,12.23
2019-04-27T20:30:43.465Z,15.57
2019-04-27T20:33:13.107Z,16.53
2019-04-27T20:35:42.831Z,17.57
2019-04-27T20:38:14.385Z,14.30
2019-04-27T20:40:44.171Z,13.30
2019-04-27T20:43:13.595Z,13.80
2019-04-27T20:45:48.571Z,13.77
2019-04-27T20:48:18.095Z,14.40
2019-04-27T20:50:48.078Z,8.40
2019-04-27T20:53:20.891Z,7.60
2019-04-27T20:55:53.850Z,10.30
2019-04-27T20:58:24.844Z,7.97
2019-04-27T21:00:54.412Z,8.40
2019-04-27T21:03:25.581Z,7.30
2019-04-27T21:05:56.637Z,8.83
2019-04-27T21:08:27.942Z,13.10
2019-04-27T21:10:57.359Z,8.93
2019-04-27T21:13:26.853Z,12.00
2019-04-27T21:15:56.374Z,5.77
2019-04-27T21:18:25.954Z,5.60
2019-04-27T21:20:55.513Z,10.30
2019-04-27T21:23:25.102Z,7.50
2019-04-27T21:25:54.685Z,11.57
2019-04-27T21:28:24.243Z,9.77
2019-04-27T21:30:53.801Z,8.03
2019-04-27T21:33:23.373Z,8.10
2019-04-27T21:35:52.872Z,8.03
2019-04-27T21:38:23.441Z,9.13
2019-04-27T21:40:52.862Z,12.93
2019-04-27T21:43:22.451Z,8.53
2019-04-27T21:45:52.013Z,9.10
2019-04-27T21:48:21.568Z,10.80
2019-04-27T21:50:51.744Z,10.43
2019-04-27T21:53:41.058Z,7.67
2019-04-27T21:56:12.050Z,6.67
2019-04-27T21:58:42.156Z,10.37
2019-04-27T22:01:13.529Z,10.57
2019-04-27T22:03:43.647Z,9.60
2019-04-27T22:06:13.325Z,9.57
2019-04-27T22:08:42.973Z,8.07
2019-04-27T22:11:12.540Z,7.23
2019-04-27T22:13:43.724Z,11.10
2019-04-27T22:16:13.295Z,10.43
2019-04-27T22:18:43.936Z,12.27
2019-04-27T22:21:13.530Z,8.47
2019-04-27T22:23:53.544Z,7.63
2019-04-27T22:26:23.236Z,10.13
2019-04-27T22:28:52.813Z,10.43
2019-04-27T22:31:22.424Z,12.50
2019-04-27T22:33:54.392Z,10.37
2019-04-27T22:36:24.188Z,9.73
2019-04-27T22:38:55.320Z,9.40
2019-04-27T22:41:31.393Z,12.23
2019-04-27T22:44:02.656Z,8.27
2019-04-27T22:46:33.960Z,9.23
2019-04-27T22:49:03.464Z,12.80
2019-04-27T22:51:33.037Z,10.27
2019-04-27T22:54:02.469Z,12.53
2019-04-27T22:56:32.261Z,8.17
2019-04-27T22:59:12.610Z,5.60
2019-04-27T23:01:46.760Z,6.33
2019-04-27T23:04:32.384Z,8.53
2019-04-27T23:07:02.722Z,9.00
2019-04-27T23:09:32.425Z,11.40
2019-04-27T23:12:01.945Z,7.37
2019-04-27T23:14:32.722Z,9.43
2019-04-27T23:17:13.059Z,6.00
2019-04-27T23:19:42.839Z,6.80
2019-04-27T23:22:12.261Z,8.43
2019-04-27T23:24:42.883Z,9.27
2019-04-27T23:27:15.118Z,9.23
2019-04-27T23:29:43.534Z,10.97
2019-04-27T23:32:21.061Z,11.13
2019-04-27T23:34:51.733Z,4.90
2019-04-27T23:37:21.292Z,6.27
2019-04-27T23:39:50.781Z,6.03
2019-04-27T23:42:21.703Z,8.43
2019-04-27T23:44:51.194Z,6.13
2019-04-27T23:47:21.787Z,12.20
2019-04-27T23:49:51.216Z,12.40
2019-04-27T23:52:38.455Z,7.13
2019-04-27T23:55:08.019Z,9.07
2019-04-27T23:57:37.445Z,8.10
